Time;durP1;ratioP1;P1;durP2;ratioP2;P2;SDS_P1;SDS_P2;PMS_P1;PMS_P2;Temp;Humidity;BMP_temperature;BMP_pressure;BME280_temperature;BME280_humidity;BME280_pressure;Samples;Min_cycle;Max_cycle;Signal;HPM_P1;HPM_P2
2021/11/10 00:01:56;;;;;;;5.43;4.28;;;;;16.60;102364.00;;;;5035004;28;20205;-82
2021/11/10 00:04:24;;;;;;;7.53;4.57;;;;;16.60;102363.00;;;;5039816;28;20935;-82
2021/11/10 00:06:52;;;;;;;8.90;3.90;;;;;16.60;102361.00;;;;5035091;28;20220;-82
2021/11/10 00:09:20;;;;;;;5.43;4.15;;;;;16.60;102363.00;;;;5033736;28;20787;-83
2021/11/10 00:11:47;;;;;;;6.38;4.07;;;;;16.60;102360.00;;;;5039180;28;20208;-82
2021/11/10 00:14:16;;;;;;;6.80;3.70;;;;;16.60;102360.00;;;;5046526;28;20211;-82
2021/11/10 00:16:43;;;;;;;7.22;4.03;;;;;16.60;102361.00;;;;5037646;28;20223;-82
2021/11/10 00:19:10;;;;;;;6.90;4.35;;;;;16.60;102356.00;;;;5044166;28;20595;-82
2021/11/10 00:21:38;;;;;;;6.45;4.28;;;;;16.60;102357.00;;;;5051388;28;20192;-82
2021/11/10 00:24:07;;;;;;;8.00;4.13;;;;;16.60;102355.00;;;;5049933;28;20196;-82
2021/11/10 00:26:35;;;;;;;12.63;4.43;;;;;16.60;102352.00;;;;5039694;28;20232;-82
2021/11/10 00:29:02;;;;;;;7.25;4.03;;;;;16.50;102342.00;;;;5032513;28;20200;-81
2021/11/10 00:31:31;;;;;;;9.23;4.45;;;;;16.50;102350.00;;;;5044144;28;20203;-81
2021/11/10 00:33:58;;;;;;;8.02;3.90;;;;;16.50;102352.00;;;;5034590;28;20199;-82
2021/11/10 00:36:26;;;;;;;6.40;3.60;;;;;16.50;102351.00;;;;5034286;28;20200;-82
2021/11/10 00:38:53;;;;;;;6.68;3.95;;;;;16.50;102348.00;;;;5041753;28;20695;-82
2021/11/10 00:41:20;;;;;;;11.07;4.55;;;;;16.50;102347.00;;;;5043878;28;20204;-82
2021/11/10 00:43:47;;;;;;;6.60;4.40;;;;;16.50;102344.00;;;;5035539;28;20191;-82
2021/11/10 00:46:15;;;;;;;7.00;4.13;;;;;16.50;102340.00;;;;5046233;28;20223;-82
2021/11/10 00:48:43;;;;;;;7.85;3.80;;;;;16.50;102334.00;;;;5049782;28;20291;-82
2021/11/10 00:51:10;;;;;;;7.78;4.63;;;;;16.50;102336.00;;;;5041835;28;20220;-82
2021/11/10 00:53:38;;;;;;;11.02;4.82;;;;;16.50;102327.00;;;;5044355;28;20619;-82
2021/11/10 00:56:06;;;;;;;9.43;4.60;;;;;16.50;102327.00;;;;5046191;28;20200;-82
2021/11/10 00:58:34;;;;;;;7.10;3.80;;;;;16.50;102324.00;;;;5037649;28;20298;-82
2021/11/10 01:01:01;;;;;;;8.10;4.80;;;;;16.50;102315.00;;;;5049399;28;20200;-82
2021/11/10 01:03:28;;;;;;;8.63;4.35;;;;;16.50;102302.00;;;;5048865;28;20554;-82
2021/11/10 01:05:57;;;;;;;6.60;4.07;;;;;16.50;102308.00;;;;5037981;28;20686;-82
2021/11/10 01:08:25;;;;;;;9.73;4.63;;;;;16.50;102298.00;;;;5030939;28;20626;-82
2021/11/10 01:10:53;;;;;;;7.00;3.58;;;;;16.50;102300.00;;;;5048237;28;20688;-82
2021/11/10 01:13:21;;;;;;;6.72;4.70;;;;;16.50;102301.00;;;;5034933;28;20208;-81
2021/11/10 01:15:48;;;;;;;4.97;3.85;;;;;16.50;102291.00;;;;5041791;28;20196;-81
2021/11/10 01:18:15;;;;;;;6.30;4.28;;;;;16.40;102287.00;;;;5043915;28;20228;-82
2021/11/10 01:20:43;;;;;;;9.73;4.15;;;;;16.40;102286.00;;;;5033684;28;20214;-82
2021/11/10 01:23:13;;;;;;;8.38;3.92;;;;;16.40;102291.00;;;;5038924;28;20204;-82
2021/11/10 01:25:40;;;;;;;7.53;4.18;;;;;16.40;102285.00;;;;5036499;28;20219;-81
2021/11/10 01:28:09;;;;;;;6.93;3.60;;;;;16.40;102284.00;;;;5034396;28;20227;-82
2021/11/10 01:30:38;;;;;;;9.95;4.65;;;;;16.40;102279.00;;;;5035422;28;20293;-82
2021/11/10 01:33:05;;;;;;;7.60;3.95;;;;;16.40;102269.00;;;;5038879;28;20200;-82
2021/11/10 01:35:33;;;;;;;6.75;3.92;;;;;16.40;102264.00;;;;5039907;28;20207;-81
2021/11/10 01:38:00;;;;;;;6.90;4.18;;;;;16.40;102251.00;;;;5044245;28;20200;-82
2021/11/10 01:40:29;;;;;;;7.25;4.20;;;;;16.30;102259.00;;;;5030894;28;20196;-82
2021/11/10 01:43:05;;;;;;;8.10;3.70;;;;;16.30;102254.00;;;;5035396;28;20203;-82
2021/11/10 01:45:34;;;;;;;6.72;4.32;;;;;16.30;102254.00;;;;5048587;28;20218;-82
2021/11/10 01:48:01;;;;;;;7.28;4.55;;;;;16.30;102252.00;;;;5045447;28;20315;-82
2021/11/10 01:50:28;;;;;;;12.20;4.32;;;;;16.30;102251.00;;;;5034557;28;20224;-82
2021/11/10 01:52:56;;;;;;;15.68;4.78;;;;;16.30;102240.00;;;;5037078;28;20200;-82
2021/11/10 01:55:23;;;;;;;9.38;4.55;;;;;16.20;102238.00;;;;5031232;28;20204;-82
2021/11/10 01:57:52;;;;;;;8.13;3.95;;;;;16.20;102238.00;;;;5030660;28;20206;-82
2021/11/10 02:00:23;;;;;;;6.57;4.07;;;;;16.20;102231.00;;;;5043307;28;20564;-82
2021/11/10 02:02:53;;;;;;;8.15;4.60;;;;;16.20;102235.00;;;;5049466;28;20203;-83
2021/11/10 02:05:21;;;;;;;10.45;4.63;;;;;16.10;102239.00;;;;5036191;28;20200;-82
2021/11/10 02:07:49;;;;;;;12.15;4.35;;;;;16.10;102243.00;;;;5030542;28;20266;-81
2021/11/10 02:10:19;;;;;;;9.30;4.22;;;;;16.00;102237.00;;;;5030773;28;20216;-82
2021/11/10 02:12:47;;;;;;;6.13;4.20;;;;;15.90;102240.00;;;;5044385;28;20192;-82
2021/11/10 02:15:18;;;;;;;7.03;4.10;;;;;15.80;102231.00;;;;5048704;28;20195;-81
2021/11/10 02:17:48;;;;;;;11.48;4.78;;;;;15.80;102228.00;;;;5035216;28;20227;-82
2021/11/10 02:20:15;;;;;;;7.20;4.78;;;;;15.70;102237.00;;;;5048364;28;20195;-81
2021/11/10 02:22:45;;;;;;;10.38;4.63;;;;;15.60;102237.00;;;;5044915;28;20203;-82
2021/11/10 02:25:14;;;;;;;12.25;4.20;;;;;15.60;102238.00;;;;5029359;28;20584;-81
2021/11/10 02:27:42;;;;;;;9.23;4.28;;;;;15.50;102238.00;;;;5038467;28;20821;-82
2021/11/10 02:30:12;;;;;;;7.10;4.28;;;;;15.50;102247.00;;;;5040258;28;20597;-81
2021/11/10 02:32:39;;;;;;;7.82;5.03;;;;;15.40;102251.00;;;;5050489;28;20636;-82
2021/11/10 02:35:08;;;;;;;9.13;4.18;;;;;15.40;102241.00;;;;5033715;28;20189;-81
2021/11/10 02:37:35;;;;;;;6.03;3.83;;;;;15.30;102251.00;;;;5038348;28;20187;-82
2021/11/10 02:40:05;;;;;;;10.50;4.32;;;;;15.20;102244.00;;;;5032601;28;20200;-82
2021/11/10 02:42:32;;;;;;;8.00;4.63;;;;;15.20;102234.00;;;;5040554;28;20211;-82
2021/11/10 02:45:00;;;;;;;6.60;4.32;;;;;15.20;102237.00;;;;5051900;28;20200;-82
2021/11/10 02:47:27;;;;;;;10.30;5.00;;;;;15.10;102241.00;;;;5047005;28;20230;-82
2021/11/10 02:49:54;;;;;;;7.53;4.47;;;;;15.00;102248.00;;;;5041488;28;20244;-82
2021/11/10 02:52:22;;;;;;;9.68;4.88;;;;;15.00;102251.00;;;;5037808;28;20693;-82
2021/11/10 02:54:51;;;;;;;14.23;4.75;;;;;14.90;102255.00;;;;5043848;28;20195;-82
2021/11/10 02:57:21;;;;;;;10.98;5.43;;;;;14.90;102261.00;;;;5050056;28;20185;-81
2021/11/10 02:59:48;;;;;;;11.05;4.72;;;;;14.90;102254.00;;;;5050465;28;20223;-81
2021/11/10 03:02:16;;;;;;;7.53;4.20;;;;;14.90;102248.00;;;;5046804;28;20196;-81
2021/11/10 03:04:45;;;;;;;7.28;4.25;;;;;14.80;102245.00;;;;5053872;28;20196;-82
2021/11/10 03:07:14;;;;;;;13.02;4.93;;;;;14.80;102241.00;;;;5050043;28;20215;-82
2021/11/10 03:09:42;;;;;;;11.95;4.90;;;;;14.80;102233.00;;;;5053054;28;20200;-82
2021/11/10 03:12:11;;;;;;;5.85;4.03;;;;;14.80;102215.00;;;;5036892;28;20204;-81
2021/11/10 03:14:41;;;;;;;8.50;4.35;;;;;14.70;102214.00;;;;5041163;28;20666;-81
2021/11/10 03:17:11;;;;;;;8.10;4.35;;;;;14.70;102221.00;;;;5049735;28;20212;-81
2021/11/10 03:19:38;;;;;;;7.15;4.55;;;;;14.70;102207.00;;;;5052548;28;20202;-81
2021/11/10 03:22:07;;;;;;;6.88;4.45;;;;;14.60;102208.00;;;;5039871;28;20203;-81
2021/11/10 03:24:35;;;;;;;8.30;4.55;;;;;14.60;102219.00;;;;5031840;28;20204;-82
2021/11/10 03:27:03;;;;;;;9.13;5.45;;;;;14.50;102223.00;;;;5034334;28;20232;-81
2021/11/10 03:29:32;;;;;;;7.28;4.80;;;;;14.50;102222.00;;;;5046572;28;20230;-81
2021/11/10 03:32:01;;;;;;;15.27;5.15;;;;;14.40;102209.00;;;;5049273;28;20745;-82
2021/11/10 03:34:29;;;;;;;9.93;5.22;;;;;14.40;102216.00;;;;5051024;28;20286;-81
2021/11/10 03:36:56;;;;;;;7.90;4.82;;;;;14.40;102227.00;;;;5037203;28;20211;-81
2021/11/10 03:39:23;;;;;;;11.65;4.82;;;;;14.30;102227.00;;;;5034960;28;20257;-81
2021/11/10 03:41:51;;;;;;;9.15;4.45;;;;;14.30;102232.00;;;;5043113;28;20199;-82
2021/11/10 03:44:18;;;;;;;7.38;4.57;;;;;14.30;102227.00;;;;5052102;28;20203;-81
2021/11/10 03:46:45;;;;;;;8.25;4.57;;;;;14.30;102239.00;;;;5050970;28;20199;-81
2021/11/10 03:49:14;;;;;;;8.98;4.32;;;;;14.30;102235.00;;;;5048740;28;20192;-81
2021/11/10 03:51:42;;;;;;;12.98;4.95;;;;;14.30;102226.00;;;;5038519;28;20227;-81
2021/11/10 03:54:09;;;;;;;7.47;4.28;;;;;14.30;102229.00;;;;5051795;28;20200;-81
2021/11/10 03:56:37;;;;;;;7.43;4.68;;;;;14.30;102226.00;;;;5051671;28;20191;-82
2021/11/10 03:59:05;;;;;;;6.35;4.65;;;;;14.30;102241.00;;;;5051966;28;20204;-81
2021/11/10 04:01:32;;;;;;;8.55;4.80;;;;;14.30;102235.00;;;;5048152;28;20203;-82
2021/11/10 04:04:00;;;;;;;10.23;4.95;;;;;14.20;102227.00;;;;5042682;28;20196;-82
2021/11/10 04:06:31;;;;;;;9.40;5.28;;;;;14.20;102225.00;;;;5048000;28;20222;-81
2021/11/10 04:08:58;;;;;;;8.73;4.95;;;;;14.20;102217.00;;;;5040570;28;20223;-81
2021/11/10 04:11:26;;;;;;;8.25;5.18;;;;;14.20;102225.00;;;;5041276;28;20231;-82
2021/11/10 04:13:53;;;;;;;11.65;5.15;;;;;14.20;102229.00;;;;5032169;28;20199;-82
2021/11/10 04:16:22;;;;;;;8.23;5.35;;;;;14.20;102225.00;;;;5034454;28;20203;-82
2021/11/10 04:18:51;;;;;;;8.10;4.68;;;;;14.10;102239.00;;;;5051318;28;20238;-82
2021/11/10 04:21:19;;;;;;;8.13;5.20;;;;;14.10;102244.00;;;;5031344;28;20196;-82
2021/11/10 04:23:52;;;;;;;9.75;4.85;;;;;14.10;102230.00;;;;5051142;28;20203;-82
2021/11/10 04:26:21;;;;;;;8.20;4.80;;;;;14.10;102236.00;;;;5035728;28;20238;-82
2021/11/10 04:28:49;;;;;;;7.38;4.32;;;;;14.10;102245.00;;;;5041047;28;20760;-82
2021/11/10 04:31:17;;;;;;;8.68;4.95;;;;;14.10;102249.00;;;;5047940;28;20206;-82
2021/11/10 04:33:44;;;;;;;9.02;4.32;;;;;14.10;102239.00;;;;5051739;28;20199;-82
2021/11/10 04:36:12;;;;;;;10.43;4.45;;;;;14.10;102235.00;;;;5035432;28;20194;-82
2021/11/10 04:38:40;;;;;;;10.80;5.10;;;;;14.10;102236.00;;;;5041647;28;20274;-82
2021/11/10 04:41:09;;;;;;;7.93;4.75;;;;;14.10;102247.00;;;;5045694;28;20283;-82
2021/11/10 04:43:36;;;;;;;7.30;4.30;;;;;14.10;102246.00;;;;5038265;28;20200;-81
2021/11/10 04:46:09;;;;;;;12.00;5.60;;;;;14.10;102244.00;;;;5036472;28;20200;-83
2021/11/10 04:48:38;;;;;;;7.20;4.70;;;;;14.10;102253.00;;;;5049630;28;20724;-82
2021/11/10 04:51:06;;;;;;;10.85;5.15;;;;;14.10;102263.00;;;;5030989;28;20224;-82
2021/11/10 04:53:36;;;;;;;8.98;5.15;;;;;14.00;102254.00;;;;5035933;28;20208;-82
2021/11/10 04:56:04;;;;;;;6.88;4.35;;;;;14.00;102247.00;;;;5031816;28;20231;-81
2021/11/10 04:58:34;;;;;;;8.60;4.88;;;;;14.00;102240.00;;;;5048578;28;20253;-82
2021/11/10 05:01:02;;;;;;;8.85;4.80;;;;;14.00;102245.00;;;;5046472;28;20261;-81
2021/11/10 05:03:30;;;;;;;8.18;4.72;;;;;14.00;102244.00;;;;5049285;28;20302;-81
2021/11/10 05:05:57;;;;;;;7.82;4.70;;;;;14.00;102240.00;;;;5031755;28;20196;-81
2021/11/10 05:08:25;;;;;;;4.85;4.18;;;;;14.00;102237.00;;;;5041346;28;20219;-81
2021/11/10 05:10:52;;;;;;;6.88;4.95;;;;;14.00;102247.00;;;;5046644;28;20200;-80
2021/11/10 05:13:20;;;;;;;9.32;4.93;;;;;14.00;102244.00;;;;5044950;28;20207;-80
2021/11/10 05:15:49;;;;;;;5.90;4.30;;;;;14.00;102260.00;;;;5032975;28;20218;-80
2021/11/10 05:18:16;;;;;;;8.75;4.68;;;;;14.00;102261.00;;;;5034036;28;20218;-80
2021/11/10 05:20:44;;;;;;;7.95;4.90;;;;;14.00;102260.00;;;;5028888;28;20196;-81
2021/11/10 05:23:11;;;;;;;8.18;5.13;;;;;14.00;102246.00;;;;5029816;28;20201;-80
2021/11/10 05:25:38;;;;;;;9.43;4.90;;;;;14.00;102248.00;;;;5047251;28;20211;-80
2021/11/10 05:28:05;;;;;;;9.07;5.57;;;;;14.00;102245.00;;;;5031763;28;20228;-80
2021/11/10 05:30:36;;;;;;;6.75;4.80;;;;;14.00;102243.00;;;;5042488;28;20200;-80
2021/11/10 05:33:05;;;;;;;8.38;4.20;;;;;14.00;102243.00;;;;5040648;28;20208;-81
2021/11/10 05:35:33;;;;;;;9.95;4.95;;;;;14.00;102245.00;;;;5044365;28;20199;-80
2021/11/10 05:38:00;;;;;;;6.88;4.55;;;;;14.00;102244.00;;;;5047801;28;20207;-81
2021/11/10 05:40:28;;;;;;;6.78;4.65;;;;;14.00;102246.00;;;;5032234;28;20211;-81
2021/11/10 05:42:55;;;;;;;6.47;4.85;;;;;14.00;102237.00;;;;5045057;28;20196;-80
2021/11/10 05:45:22;;;;;;;7.50;4.97;;;;;14.00;102229.00;;;;5034921;28;21052;-80
2021/11/10 05:47:50;;;;;;;11.85;5.45;;;;;14.00;102237.00;;;;5045107;28;20231;-80
2021/11/10 05:50:18;;;;;;;6.95;5.32;;;;;13.90;102243.00;;;;5037350;28;20227;-81
2021/11/10 05:52:49;;;;;;;7.47;4.68;;;;;13.90;102249.00;;;;5047651;28;20204;-81
2021/11/10 05:55:16;;;;;;;7.07;4.43;;;;;13.90;102253.00;;;;5040853;28;20208;-81
2021/11/10 05:57:44;;;;;;;9.20;5.10;;;;;13.90;102252.00;;;;5038474;28;20199;-81
2021/11/10 06:00:13;;;;;;;6.90;4.43;;;;;13.90;102256.00;;;;5032734;28;20203;-81
2021/11/10 06:02:42;;;;;;;10.85;4.97;;;;;13.90;102251.00;;;;5047235;28;20245;-80
2021/11/10 06:05:10;;;;;;;10.35;5.20;;;;;13.90;102250.00;;;;5044715;28;20198;-81
2021/11/10 06:07:38;;;;;;;7.07;4.78;;;;;13.90;102248.00;;;;5038797;28;20215;-81
2021/11/10 06:10:07;;;;;;;10.63;5.10;;;;;13.90;102238.00;;;;5044812;28;20196;-81
2021/11/10 06:12:34;;;;;;;10.32;5.43;;;;;13.90;102236.00;;;;5046314;28;20196;-81
2021/11/10 06:15:01;;;;;;;8.48;4.88;;;;;13.90;102232.00;;;;5048428;28;20196;-81
2021/11/10 06:17:29;;;;;;;6.18;4.65;;;;;13.90;102235.00;;;;5043833;28;20212;-81
2021/11/10 06:19:56;;;;;;;9.25;5.55;;;;;13.90;102230.00;;;;5047895;28;20195;-81
2021/11/10 06:22:23;;;;;;;6.97;4.43;;;;;13.90;102226.00;;;;5042477;28;20200;-81
2021/11/10 06:24:52;;;;;;;11.80;4.85;;;;;13.80;102235.00;;;;5043719;28;20203;-80
2021/11/10 06:27:20;;;;;;;7.88;5.20;;;;;13.80;102231.00;;;;5040560;28;20199;-80
2021/11/10 06:29:47;;;;;;;12.88;5.03;;;;;13.80;102227.00;;;;5031317;28;20226;-81
2021/11/10 06:32:15;;;;;;;9.65;4.55;;;;;13.80;102234.00;;;;5033153;28;20199;-81
2021/11/10 06:34:42;;;;;;;7.95;5.13;;;;;13.80;102228.00;;;;5049302;28;20206;-82
2021/11/10 06:37:10;;;;;;;7.20;4.70;;;;;13.80;102234.00;;;;5043564;28;20761;-82
2021/11/10 06:39:37;;;;;;;6.45;4.55;;;;;13.80;102228.00;;;;5045253;28;20196;-81
2021/11/10 06:42:07;;;;;;;8.32;4.65;;;;;13.80;102235.00;;;;5038683;28;20202;-80
2021/11/10 06:44:34;;;;;;;6.13;4.35;;;;;13.80;102241.00;;;;5048651;28;20192;-80
2021/11/10 06:47:02;;;;;;;9.68;4.82;;;;;13.80;102246.00;;;;5046412;28;20665;-80
2021/11/10 06:49:29;;;;;;;11.20;5.47;;;;;13.80;102243.00;;;;5047291;28;20223;-80
2021/11/10 06:51:57;;;;;;;7.63;4.57;;;;;13.80;102248.00;;;;5036779;28;20227;-80
2021/11/10 06:54:26;;;;;;;8.30;4.78;;;;;13.80;102253.00;;;;5047301;28;20244;-80
2021/11/10 06:56:53;;;;;;;10.85;4.78;;;;;13.80;102243.00;;;;5042270;28;20230;-82
2021/11/10 06:59:22;;;;;;;6.05;4.50;;;;;13.80;102248.00;;;;5035940;28;20227;-81
2021/11/10 07:01:50;;;;;;;11.75;4.53;;;;;13.80;102251.00;;;;5036880;28;20196;-81
2021/11/10 07:04:17;;;;;;;8.65;4.43;;;;;13.80;102261.00;;;;5032262;28;20219;-81
2021/11/10 07:06:44;;;;;;;7.80;4.70;;;;;13.80;102255.00;;;;5044539;28;20192;-81
2021/11/10 07:09:12;;;;;;;12.05;4.82;;;;;13.80;102266.00;;;;5034606;28;20215;-80
2021/11/10 07:11:39;;;;;;;10.43;5.00;;;;;13.80;102275.00;;;;5044483;28;20200;-81
2021/11/10 07:14:09;;;;;;;9.60;4.95;;;;;13.70;102275.00;;;;5044743;28;20208;-80
2021/11/10 07:16:38;;;;;;;7.47;5.22;;;;;13.70;102273.00;;;;5043572;28;20196;-81
2021/11/10 07:19:05;;;;;;;7.28;5.22;;;;;13.70;102268.00;;;;5031417;28;20207;-80
2021/11/10 07:21:33;;;;;;;9.68;4.82;;;;;13.80;102268.00;;;;5032299;28;20204;-79
2021/11/10 07:24:00;;;;;;;9.02;5.30;;;;;13.70;102266.00;;;;5031540;28;20223;-80
2021/11/10 07:26:27;;;;;;;6.30;4.25;;;;;13.80;102254.00;;;;5042730;28;20212;-80
2021/11/10 07:28:55;;;;;;;8.43;4.60;;;;;13.80;102229.00;;;;5031426;28;20239;-80
2021/11/10 07:31:22;;;;;;;6.97;4.90;;;;;13.80;102213.00;;;;5039007;28;20659;-81
2021/11/10 07:33:51;;;;;;;7.53;5.07;;;;;13.80;102198.00;;;;5051918;28;20207;-81
2021/11/10 07:36:19;;;;;;;9.43;5.10;;;;;13.80;102192.00;;;;5039479;28;20204;-80
2021/11/10 07:38:46;;;;;;;7.70;4.35;;;;;13.80;102198.00;;;;5043910;28;20219;-80
2021/11/10 07:41:16;;;;;;;7.88;4.95;;;;;13.80;102212.00;;;;5036599;28;20196;-81
2021/11/10 07:43:43;;;;;;;9.23;5.53;;;;;13.80;102231.00;;;;5048493;28;20245;-80
2021/11/10 07:46:13;;;;;;;10.20;5.10;;;;;13.70;102244.00;;;;5047038;28;20203;-81
2021/11/10 07:48:42;;;;;;;7.35;4.20;;;;;13.70;102267.00;;;;5048420;28;20861;-81
2021/11/10 07:51:10;;;;;;;9.48;5.32;;;;;13.80;102285.00;;;;5042266;28;20220;-81
2021/11/10 07:53:38;;;;;;;9.10;5.28;;;;;13.80;102302.00;;;;5037160;28;20200;-81
2021/11/10 07:56:06;;;;;;;8.68;5.18;;;;;13.80;102291.00;;;;5030421;28;20204;-83
2021/11/10 07:58:33;;;;;;;8.20;5.18;;;;;13.80;102307.00;;;;5045203;28;20204;-80
2021/11/10 08:01:00;;;;;;;10.40;4.90;;;;;13.80;102326.00;;;;5036506;28;20197;-81
2021/11/10 08:03:28;;;;;;;6.22;4.28;;;;;13.80;102308.00;;;;5036689;28;20196;-80
2021/11/10 08:05:56;;;;;;;7.68;5.28;;;;;13.80;102300.00;;;;5035456;28;20204;-82
2021/11/10 08:08:25;;;;;;;7.55;4.90;;;;;13.80;102318.00;;;;5045224;28;20224;-81
2021/11/10 08:11:01;;;;;;;8.48;5.05;;;;;13.80;102328.00;;;;5039061;28;20210;-83
2021/11/10 08:13:33;;;;;;;9.00;5.30;;;;;13.80;102329.00;;;;5035425;28;20624;-82
2021/11/10 08:16:01;;;;;;;8.82;5.22;;;;;13.80;102335.00;;;;5039457;28;20195;-82
2021/11/10 08:18:30;;;;;;;6.82;4.40;;;;;13.90;102338.00;;;;5050391;28;20227;-80
2021/11/10 08:20:57;;;;;;;10.07;6.00;;;;;13.90;102324.00;;;;5043890;28;20278;-80
2021/11/10 08:23:27;;;;;;;14.13;5.65;;;;;13.90;102308.00;;;;5040311;28;20215;-81
2021/11/10 08:25:58;;;;;;;8.43;5.45;;;;;13.90;102316.00;;;;5035558;28;20574;-81
2021/11/10 08:28:26;;;;;;;7.13;4.75;;;;;14.00;102308.00;;;;5037190;28;20207;-81
2021/11/10 08:30:54;;;;;;;8.55;4.93;;;;;14.00;102308.00;;;;5042801;28;20195;-81
2021/11/10 08:33:22;;;;;;;9.35;5.15;;;;;14.00;102305.00;;;;5039265;28;20284;-81
2021/11/10 08:35:50;;;;;;;9.68;5.45;;;;;14.10;102307.00;;;;5045248;28;20196;-83
2021/11/10 08:38:18;;;;;;;6.53;4.75;;;;;14.10;102299.00;;;;5035078;28;20195;-82
2021/11/10 08:40:47;;;;;;;9.10;5.45;;;;;14.10;102296.00;;;;5038783;28;20200;-83
2021/11/10 08:43:14;;;;;;;9.68;4.88;;;;;14.10;102293.00;;;;5035849;28;20196;-83
2021/11/10 08:45:44;;;;;;;7.00;5.38;;;;;14.10;102286.00;;;;5042608;28;20912;-81
2021/11/10 08:48:13;;;;;;;7.35;4.78;;;;;14.10;102285.00;;;;5038565;28;20279;-82
2021/11/10 08:50:43;;;;;;;10.02;4.72;;;;;14.20;102278.00;;;;5032909;28;20892;-82
2021/11/10 08:53:11;;;;;;;7.82;4.57;;;;;14.20;102284.00;;;;5034560;28;20714;-82
2021/11/10 08:55:39;;;;;;;11.15;5.28;;;;;14.20;102272.00;;;;5030902;28;20638;-82
2021/11/10 08:58:08;;;;;;;10.23;5.60;;;;;14.20;102279.00;;;;5040327;28;20203;-82
2021/11/10 09:00:36;;;;;;;7.97;5.03;;;;;14.30;102280.00;;;;5040733;28;20188;-83
2021/11/10 09:03:03;;;;;;;6.88;5.10;;;;;14.30;102277.00;;;;5038329;28;20196;-82
2021/11/10 09:05:32;;;;;;;7.70;4.53;;;;;14.30;102279.00;;;;5029432;28;20204;-82
2021/11/10 09:08:00;;;;;;;10.30;5.15;;;;;14.30;102278.00;;;;5038735;28;20196;-82
2021/11/10 09:10:28;;;;;;;9.98;5.25;;;;;14.40;102269.00;;;;5032236;28;20624;-82
2021/11/10 09:12:55;;;;;;;7.40;4.72;;;;;14.40;102269.00;;;;5043087;28;20195;-82
2021/11/10 09:15:24;;;;;;;11.73;5.60;;;;;14.50;102271.00;;;;5046380;28;20207;-83
2021/11/10 09:17:51;;;;;;;12.00;5.80;;;;;14.60;102280.00;;;;5034492;28;20220;-82
2021/11/10 09:20:21;;;;;;;9.00;4.90;;;;;14.60;102272.00;;;;5036663;28;20200;-82
2021/11/10 09:22:48;;;;;;;9.20;5.47;;;;;14.70;102275.00;;;;5029865;28;20196;-82
2021/11/10 09:25:20;;;;;;;7.13;4.90;;;;;14.70;102282.00;;;;5042316;28;20196;-83
2021/11/10 09:27:48;;;;;;;9.20;4.95;;;;;14.80;102275.00;;;;5033917;28;20187;-84
2021/11/10 09:30:18;;;;;;;9.40;4.93;;;;;14.80;102275.00;;;;5036477;28;20581;-83
2021/11/10 09:32:50;;;;;;;6.90;4.43;;;;;14.90;102276.00;;;;5034341;28;20231;-83
2021/11/10 09:35:19;;;;;;;9.05;5.18;;;;;15.00;102275.00;;;;5040372;28;20187;-82
2021/11/10 09:37:49;;;;;;;6.82;4.95;;;;;15.00;102273.00;;;;5038646;28;20317;-83
2021/11/10 09:40:19;;;;;;;6.50;5.00;;;;;15.10;102284.00;;;;5035992;28;20663;-83
2021/11/10 09:42:46;;;;;;;9.10;4.80;;;;;15.20;102289.00;;;;5036925;28;20203;-83
2021/11/10 09:45:16;;;;;;;7.03;5.10;;;;;15.20;102284.00;;;;5038795;28;20192;-83
2021/11/10 09:47:45;;;;;;;7.55;4.85;;;;;15.30;102282.00;;;;5037585;28;20200;-84
2021/11/10 09:50:15;;;;;;;7.63;4.30;;;;;15.40;102271.00;;;;5037750;28;20231;-83
2021/11/10 09:52:44;;;;;;;12.35;5.47;;;;;15.50;102278.00;;;;5029850;28;20211;-84
2021/11/10 09:55:13;;;;;;;13.23;6.30;;;;;15.50;102276.00;;;;5039694;28;20203;-83
2021/11/10 09:57:40;;;;;;;11.10;5.75;;;;;15.60;102278.00;;;;5032881;28;20200;-83
2021/11/10 10:00:09;;;;;;;9.63;5.30;;;;;15.60;102290.00;;;;5041595;28;20192;-84
2021/11/10 10:02:37;;;;;;;12.88;5.28;;;;;15.70;102296.00;;;;5029019;28;20200;-84
2021/11/10 10:05:07;;;;;;;10.45;4.70;;;;;15.80;102301.00;;;;5035375;28;20192;-85
2021/11/10 10:07:35;;;;;;;11.52;5.07;;;;;15.80;102304.00;;;;5039581;28;20196;-85
2021/11/10 10:10:02;;;;;;;10.45;5.40;;;;;15.80;102304.00;;;;5032450;28;20215;-85
2021/11/10 10:12:29;;;;;;;7.38;5.20;;;;;15.90;102301.00;;;;5034380;28;20196;-85
2021/11/10 10:14:57;;;;;;;8.80;5.20;;;;;15.90;102301.00;;;;5030332;28;20196;-85
2021/11/10 10:17:39;;;;;;;9.50;4.70;;;;;15.90;102297.00;;;;5033035;28;20292;-83
2021/11/10 10:20:22;;;;;;;8.85;4.80;;;;;15.90;102300.00;;;;5040733;28;20210;-83
2021/11/10 10:22:50;;;;;;;8.02;4.60;;;;;16.00;102296.00;;;;5039091;28;20188;-83
2021/11/10 10:25:20;;;;;;;9.20;4.75;;;;;16.00;102304.00;;;;5033696;28;20686;-84
2021/11/10 10:27:56;;;;;;;6.60;5.25;;;;;16.00;102296.00;;;;5036865;28;20203;-83
2021/11/10 10:30:27;;;;;;;7.97;4.63;;;;;16.10;102292.00;;;;5036945;28;20219;-83
2021/11/10 10:32:57;;;;;;;6.50;4.55;;;;;16.10;102283.00;;;;5034292;28;20200;-83
2021/11/10 10:35:35;;;;;;;8.80;4.97;;;;;16.10;102280.00;;;;5033861;28;20261;-83
2021/11/10 10:38:06;;;;;;;11.32;5.90;;;;;16.20;102283.00;;;;5035880;28;20204;-84
2021/11/10 10:40:34;;;;;;;7.03;4.78;;;;;16.30;102280.00;;;;5043013;28;20286;-83
2021/11/10 10:43:03;;;;;;;9.10;5.03;;;;;16.30;102262.00;;;;5043637;28;20199;-83
2021/11/10 10:45:37;;;;;;;7.88;4.80;;;;;16.30;102260.00;;;;5041331;28;20508;-83
2021/11/10 10:48:08;;;;;;;10.63;4.95;;;;;16.40;102263.00;;;;5046445;28;20250;-84
2021/11/10 10:50:41;;;;;;;8.13;5.00;;;;;16.40;102278.00;;;;5041094;28;20235;-84
2021/11/10 10:53:12;;;;;;;9.45;4.88;;;;;16.50;102273.00;;;;5033111;28;20196;-83
2021/11/10 10:55:41;;;;;;;8.05;5.00;;;;;16.60;102268.00;;;;5046630;28;20204;-83
2021/11/10 10:58:10;;;;;;;9.82;5.82;;;;;16.60;102275.00;;;;5043773;28;20200;-84
2021/11/10 11:00:39;;;;;;;9.32;4.88;;;;;16.70;102279.00;;;;5047749;28;20207;-83
2021/11/10 11:03:32;;;;;;;8.32;5.20;;;;;16.60;102277.00;;;;5051290;28;20203;-84
2021/11/10 11:06:01;;;;;;;7.53;4.68;;;;;16.80;102285.00;;;;5041844;28;20196;-83
2021/11/10 11:08:30;;;;;;;9.93;4.72;;;;;16.80;102288.00;;;;5044253;28;20236;-84
2021/11/10 11:10:59;;;;;;;10.15;4.95;;;;;16.80;102285.00;;;;5043039;28;20238;-84
2021/11/10 11:13:46;;;;;;;7.53;4.82;;;;;16.80;102277.00;;;;5038256;28;20646;-84
2021/11/10 11:16:14;;;;;;;9.45;4.88;;;;;16.90;102283.00;;;;5050627;28;20601;-84
2021/11/10 11:18:41;;;;;;;7.57;4.18;;;;;16.90;102286.00;;;;5050186;28;20227;-84
2021/11/10 11:21:26;;;;;;;8.10;4.57;;;;;16.90;102284.00;;;;5051287;28;20200;-84
2021/11/10 11:23:56;;;;;;;8.32;5.63;;;;;17.00;102268.00;;;;5051585;28;20225;-84
2021/11/10 11:26:36;;;;;;;8.48;5.28;;;;;16.90;102274.00;;;;5051812;28;20200;-84
2021/11/10 11:29:23;;;;;;;10.25;5.15;;;;;16.90;102264.00;;;;5041311;28;20978;-83
2021/11/10 11:31:51;;;;;;;6.68;4.53;;;;;17.00;102279.00;;;;5041448;28;20253;-84
2021/11/10 11:34:18;;;;;;;8.73;4.90;;;;;17.00;102279.00;;;;5047472;28;20206;-85
2021/11/10 11:36:53;;;;;;;11.20;5.15;;;;;17.00;102275.00;;;;5036146;28;20721;-85
2021/11/10 11:39:22;;;;;;;8.95;4.90;;;;;17.10;102270.00;;;;5041272;28;20194;-86
2021/11/10 11:41:50;;;;;;;11.65;5.28;;;;;17.10;102267.00;;;;5040313;28;20570;-83
2021/11/10 11:44:18;;;;;;;8.10;4.90;;;;;17.10;102263.00;;;;5040174;28;20227;-83
2021/11/10 11:46:47;;;;;;;10.10;5.28;;;;;17.10;102251.00;;;;5043640;28;21067;-82
2021/11/10 11:49:15;;;;;;;11.07;5.57;;;;;17.20;102251.00;;;;5041171;28;20670;-82
2021/11/10 11:51:44;;;;;;;11.30;6.40;;;;;17.20;102248.00;;;;5048631;28;20945;-82
2021/11/10 11:54:15;;;;;;;7.55;5.03;;;;;17.20;102251.00;;;;5044893;28;20665;-83
2021/11/10 11:56:43;;;;;;;8.35;5.05;;;;;17.30;102256.00;;;;5039441;28;20201;-83
2021/11/10 11:59:11;;;;;;;9.60;5.50;;;;;17.30;102251.00;;;;5031762;28;20701;-83
2021/11/10 12:01:39;;;;;;;10.20;5.60;;;;;17.40;102248.00;;;;5036977;28;20196;-82
2021/11/10 12:04:12;;;;;;;8.30;4.97;;;;;17.40;102245.00;;;;5041595;28;20316;-82
2021/11/10 12:06:51;;;;;;;9.43;5.15;;;;;17.40;102242.00;;;;5045783;28;20534;-83
2021/11/10 12:09:22;;;;;;;8.30;5.45;;;;;17.40;102241.00;;;;5030229;28;20204;-82
2021/11/10 12:11:55;;;;;;;9.15;4.97;;;;;17.40;102238.00;;;;5043946;28;20200;-83
2021/11/10 12:14:31;;;;;;;11.57;5.60;;;;;17.50;102233.00;;;;5036054;28;20205;-82